Terminal Aerodrome Forecast
Issued by NWS

Home | Current Version | Previous Version | Graphics & Text | Print | Product List | Glossary On
Versions: 1 2 3 4 5 6 7 8 9 10 11 12 13 14 15 16 17
569
FTUS43 KGRB 241555 AAB
TAFCWA
TAF AMD
KCWA 241555Z 2416/2512 21008KT 6SM BR VCSH OVC006
     FM241800 24010G16KT P6SM BKN014
     FM242000 25009G15KT P6SM BKN050
     FM242200 26008G14KT P6SM BKN080
     FM242300 28004KT P6SM SCT200=

USA.gov is the U.S. government's official web portal to all federal, state and local government web resources and services.